Time;durP1;ratioP1;P1;durP2;ratioP2;P2;SDS_P1;SDS_P2;PMS_P1;PMS_P2;Temp;Humidity;BMP_temperature;BMP_pressure;BME280_temperature;BME280_humidity;BME280_pressure;Samples;Min_cycle;Max_cycle;Signal;HPM_P1;HPM_P2
2021/08/19 00:02:14;;;;;;;6.60;5.33;;;;;;;15.47;100.00;100153.13;5076007;28;20224;-75
2021/08/19 00:04:40;;;;;;;7.27;5.47;;;;;;;15.46;100.00;100146.03;5040465;28;977253;-74
2021/08/19 00:07:05;;;;;;;5.60;4.97;;;;;;;15.45;100.00;100142.50;5072596;28;20188;-76
2021/08/19 00:09:31;;;;;;;5.60;5.00;;;;;;;15.44;100.00;100148.88;5061671;28;20203;-75
2021/08/19 00:11:56;;;;;;;7.63;5.13;;;;;;;15.45;100.00;100153.25;5057739;28;20180;-75
2021/08/19 00:14:22;;;;;;;7.30;4.90;;;;;;;15.43;100.00;100146.31;5052494;28;20199;-76
2021/08/19 00:16:47;;;;;;;5.73;4.80;;;;;;;15.48;100.00;100144.06;5052560;28;20176;-75
2021/08/19 00:19:12;;;;;;;7.03;5.10;;;;;;;15.49;100.00;100141.25;5052667;28;20202;-76
2021/08/19 00:21:38;;;;;;;10.80;5.50;;;;;;;15.38;100.00;100141.31;5054137;28;20175;-75
2021/08/19 00:24:04;;;;;;;9.40;5.43;;;;;;;15.48;100.00;100127.94;5052679;28;20191;-75
2021/08/19 00:26:29;;;;;;;6.77;5.20;;;;;;;15.47;100.00;100147.75;5053458;28;20191;-75
2021/08/19 00:28:54;;;;;;;6.90;5.60;;;;;;;15.47;100.00;100134.31;5053404;28;20175;-74
2021/08/19 00:31:22;;;;;;;6.43;5.83;;;;;;;15.46;100.00;100136.13;5053278;28;20179;-76
2021/08/19 00:33:47;;;;;;;7.43;6.17;;;;;;;15.47;99.90;100128.94;5053892;28;20202;-75
2021/08/19 00:36:13;;;;;;;9.17;5.97;;;;;;;15.46;99.98;100140.66;5052531;28;20636;-75
2021/08/19 00:38:39;;;;;;;7.17;5.97;;;;;;;15.46;100.00;100130.75;5035561;28;20183;-74
2021/08/19 00:41:05;;;;;;;8.33;6.20;;;;;;;15.48;100.00;100139.56;5053496;28;20176;-76
2021/08/19 00:43:33;;;;;;;10.80;5.80;;;;;;;15.42;100.00;100133.84;5053389;28;20549;-74
2021/08/19 00:45:58;;;;;;;7.17;5.97;;;;;;;15.42;100.00;100133.84;5052006;28;20183;-75
2021/08/19 00:48:23;;;;;;;11.23;6.37;;;;;;;15.42;100.00;100134.69;5035577;28;20186;-75
2021/08/19 00:50:49;;;;;;;7.07;6.00;;;;;;;15.43;100.00;100149.00;5053382;28;20179;-75
2021/08/19 00:53:14;;;;;;;9.47;6.23;;;;;;;15.44;100.00;100142.63;5035574;28;20179;-75
2021/08/19 00:55:40;;;;;;;9.40;7.03;;;;;;;15.44;100.00;100131.88;5051930;28;20615;-74
2021/08/19 00:58:06;;;;;;;7.30;6.60;;;;;;;15.44;100.00;100150.69;5052197;28;20695;-74
2021/08/19 01:00:32;;;;;;;10.13;6.60;;;;;;;15.45;100.00;100138.97;5052016;28;20173;-75
2021/08/19 01:02:58;;;;;;;8.03;6.63;;;;;;;15.45;100.00;100137.13;5052014;28;20184;-74
2021/08/19 01:05:28;;;;;;;7.20;6.00;;;;;;;15.47;100.00;100139.69;5034190;28;20211;-74
2021/08/19 01:07:53;;;;;;;7.13;5.97;;;;;;;15.45;100.00;100145.19;5051790;28;20179;-74
2021/08/19 01:10:18;;;;;;;8.00;6.53;;;;;;;15.44;100.00;100142.63;5051770;28;20759;-75
2021/08/19 01:12:45;;;;;;;7.27;6.50;;;;;;;15.48;100.00;100144.06;5052047;28;20579;-75
2021/08/19 01:15:10;;;;;;;6.93;5.90;;;;;;;15.48;100.00;100144.06;5051798;28;20682;-75
2021/08/19 01:17:36;;;;;;;8.43;6.53;;;;;;;15.45;100.00;100126.38;5051690;28;20258;-74
2021/08/19 01:20:02;;;;;;;8.07;6.70;;;;;;;15.42;100.00;100140.06;5035197;28;20224;-74
2021/08/19 01:22:27;;;;;;;7.73;6.93;;;;;;;15.44;100.00;100140.78;5051741;28;20179;-75
2021/08/19 01:24:53;;;;;;;9.93;7.13;;;;;;;15.38;100.00;100135.94;5051496;28;20200;-75
2021/08/19 01:27:20;;;;;;;8.33;7.33;;;;;;;15.36;100.00;100139.75;5051651;28;20186;-75
2021/08/19 01:29:46;;;;;;;9.37;7.40;;;;;;;15.25;100.00;100146.88;5035084;28;20247;-75
2021/08/19 01:32:13;;;;;;;8.70;7.73;;;;;;;15.05;100.00;100142.28;5051718;28;20667;-74
2021/08/19 01:34:39;;;;;;;9.60;8.60;;;;;;;14.86;100.00;100132.16;5051567;28;20183;-75
2021/08/19 01:37:05;;;;;;;10.17;8.87;;;;;;;14.78;100.00;100145.38;5035079;28;20175;-74
2021/08/19 01:39:30;;;;;;;11.70;8.57;;;;;;;14.68;100.00;100139.06;5034956;28;20636;-75
2021/08/19 01:41:56;;;;;;;12.23;9.60;;;;;;;14.65;100.00;100134.78;5035029;28;20207;-75
2021/08/19 01:44:22;;;;;;;10.23;8.97;;;;;;;14.58;100.00;100127.34;5051642;28;20687;-75
2021/08/19 01:46:58;;;;;;;10.97;9.80;;;;;;;14.62;100.00;100135.03;5051474;28;20250;-75
2021/08/19 01:49:25;;;;;;;9.53;8.50;;;;;;;14.59;100.00;100135.28;5034709;28;20179;-75
2021/08/19 01:51:51;;;;;;;13.23;9.07;;;;;;;14.56;100.00;100129.31;5051684;28;20189;-75
2021/08/19 01:54:16;;;;;;;13.63;9.50;;;;;;;14.57;100.00;100145.28;5052775;28;20275;-75
2021/08/19 01:56:42;;;;;;;12.43;8.83;;;;;;;14.60;100.00;100126.25;5051429;28;20221;-75
2021/08/19 01:59:07;;;;;;;13.73;9.27;;;;;;;14.61;100.00;100138.69;5051562;28;20544;-75
2021/08/19 02:01:33;;;;;;;12.00;9.27;;;;;;;14.63;100.00;100139.44;5034713;28;20190;-74
2021/08/19 02:03:58;;;;;;;14.63;9.67;;;;;;;14.62;100.00;100145.78;5051123;28;20218;-75
2021/08/19 02:06:24;;;;;;;10.77;8.70;;;;;;;14.63;100.00;100142.13;5034528;28;20187;-74
2021/08/19 02:08:49;;;;;;;13.50;9.00;;;;;;;14.67;100.00;100140.88;5052460;28;20176;-75
2021/08/19 02:11:14;;;;;;;11.13;8.90;;;;;;;14.75;100.00;100131.34;5051700;28;20186;-75
2021/08/19 02:13:40;;;;;;;12.43;8.20;;;;;;;14.87;100.00;100128.53;5034457;28;20199;-75
2021/08/19 02:16:06;;;;;;;10.37;7.83;;;;;;;14.97;100.00;100134.84;5035492;28;20225;-75
2021/08/19 02:18:31;;;;;;;8.93;7.50;;;;;;;15.05;100.00;100138.75;5038362;28;20190;-75
2021/08/19 02:20:56;;;;;;;8.30;7.27;;;;;;;15.11;100.00;100143.59;5056202;28;20179;-75
2021/08/19 02:23:22;;;;;;;16.43;7.73;;;;;;;15.15;100.00;100137.84;5054602;28;20200;-75
2021/08/19 02:25:47;;;;;;;14.63;7.47;;;;;;;15.15;100.00;100135.16;5037933;28;20249;-75
2021/08/19 02:28:12;;;;;;;8.57;6.77;;;;;;;15.18;100.00;100137.59;5038070;28;20198;-75
2021/08/19 02:30:38;;;;;;;8.77;7.43;;;;;;;15.19;100.00;100133.06;5055200;28;20183;-75
2021/08/19 02:33:03;;;;;;;11.53;7.07;;;;;;;15.19;100.00;100130.38;5037960;28;20648;-75
2021/08/19 02:35:30;;;;;;;8.73;7.00;;;;;;;15.17;100.00;100125.13;5054539;28;20536;-76
2021/08/19 02:37:57;;;;;;;9.20;6.90;;;;;;;15.14;100.00;100113.78;5037883;28;20205;-75
2021/08/19 02:40:23;;;;;;;9.00;6.63;;;;;;;15.12;100.00;100116.59;5037669;28;20229;-75
2021/08/19 02:42:48;;;;;;;8.10;5.97;;;;;;;15.18;100.00;100112.53;5037794;28;20229;-76
2021/08/19 02:45:14;;;;;;;9.40;6.57;;;;;;;15.21;100.00;100123.88;5037532;28;20195;-74
2021/08/19 02:47:39;;;;;;;8.17;6.07;;;;;;;15.21;100.00;100118.50;5037750;28;20525;-74
2021/08/19 02:50:05;;;;;;;8.47;6.10;;;;;;;15.19;100.00;100117.78;5037512;28;20270;-74
2021/08/19 02:52:30;;;;;;;7.93;6.00;;;;;;;15.22;100.00;100122.06;5054290;28;20275;-75
2021/08/19 02:54:55;;;;;;;8.17;5.60;;;;;;;15.21;99.77;100126.56;5037557;28;20199;-74
2021/08/19 02:57:21;;;;;;;7.67;5.57;;;;;;;15.18;99.95;100132.22;5037412;28;20234;-74
2021/08/19 02:59:46;;;;;;;8.47;5.83;;;;;;;15.15;100.00;100137.00;5054141;28;20184;-74
2021/08/19 03:02:11;;;;;;;8.53;4.90;;;;;;;15.11;99.85;100124.78;5054652;28;20205;-74
2021/08/19 03:04:37;;;;;;;7.10;4.73;;;;;;;15.09;98.88;100132.97;5053804;28;20212;-74
2021/08/19 03:07:02;;;;;;;8.63;5.10;;;;;;;15.12;97.83;100131.88;5055560;28;20584;-75
2021/08/19 03:09:27;;;;;;;8.60;4.60;;;;;;;15.15;96.87;100120.88;5053877;28;20591;-74
2021/08/19 03:11:53;;;;;;;5.47;4.30;;;;;;;15.14;96.70;100128.06;5037293;28;20187;-74
2021/08/19 03:14:18;;;;;;;5.97;4.20;;;;;;;15.15;96.10;100126.22;5053783;28;20188;-75
2021/08/19 03:16:43;;;;;;;7.63;4.30;;;;;;;15.15;95.69;100137.00;5053847;28;20253;-75
2021/08/19 03:19:09;;;;;;;4.33;3.73;;;;;;;15.15;94.81;100145.91;5053727;28;20175;-75
2021/08/19 03:21:36;;;;;;;8.60;4.20;;;;;;;15.15;93.87;100127.09;5037017;28;20203;-74
2021/08/19 03:24:02;;;;;;;4.07;3.67;;;;;;;15.12;93.74;100126.50;5036968;28;20688;-75
2021/08/19 03:26:28;;;;;;;7.27;3.90;;;;;;;15.12;93.68;100132.72;5053858;28;20275;-76
2021/08/19 03:28:53;;;;;;;5.93;4.00;;;;;;;15.10;92.98;100115.88;5054901;28;20184;-76
2021/08/19 03:31:19;;;;;;;5.47;3.57;;;;;;;15.10;92.96;100129.31;5037404;28;20305;-75
2021/08/19 03:33:46;;;;;;;5.10;3.83;;;;;;;15.09;92.96;100150.94;5053378;28;20635;-75
2021/08/19 03:36:11;;;;;;;6.10;3.83;;;;;;;15.10;93.34;100148.13;5054773;28;20163;-74
2021/08/19 03:38:37;;;;;;;8.20;4.60;;;;;;;15.08;93.34;100138.47;5053582;28;20665;-75
2021/08/19 03:41:02;;;;;;;4.83;3.93;;;;;;;15.04;94.21;100143.25;5036845;28;20599;-75
2021/08/19 03:43:27;;;;;;;6.00;3.67;;;;;;;14.99;94.98;100149.00;5057712;28;20540;-75
2021/08/19 03:45:52;;;;;;;5.60;4.00;;;;;;;15.01;95.22;100140.81;5053674;28;20207;-75
2021/08/19 03:48:18;;;;;;;6.27;3.80;;;;;;;14.98;95.55;100149.16;5036733;28;20183;-75
2021/08/19 03:50:44;;;;;;;6.70;4.17;;;;;;;14.96;96.26;100143.03;5053198;28;20179;-75
2021/08/19 03:53:09;;;;;;;5.93;5.17;;;;;;;14.93;96.42;100143.28;5036519;28;20222;-75
2021/08/19 03:55:34;;;;;;;5.10;4.27;;;;;;;14.92;96.33;100137.06;5053257;28;20217;-76
2021/08/19 03:58:00;;;;;;;8.30;4.67;;;;;;;14.92;96.37;100139.75;5055203;28;20188;-76
2021/08/19 04:00:25;;;;;;;6.57;4.70;;;;;;;14.96;96.46;100148.41;5053946;28;20646;-75
2021/08/19 04:02:50;;;;;;;6.23;4.50;;;;;;;14.95;96.17;100146.72;5054728;28;20180;-76
2021/08/19 04:05:16;;;;;;;6.27;5.27;;;;;;;14.86;97.00;100159.03;5073406;22;20231;-67
2021/08/19 04:07:41;;;;;;;8.37;5.60;;;;;;;14.65;99.87;100153.59;5052968;28;20567;-68
2021/08/19 04:10:08;;;;;;;8.57;5.50;;;;;;;14.55;100.00;100147.25;5052940;28;20209;-67
2021/08/19 04:12:33;;;;;;;9.77;5.90;;;;;;;14.51;100.00;100158.38;5054000;28;20183;-67
2021/08/19 04:14:59;;;;;;;7.53;5.70;;;;;;;14.56;100.00;100159.69;5053714;28;20191;-67
2021/08/19 04:17:24;;;;;;;9.13;5.63;;;;;;;14.56;100.00;100165.06;5052854;28;20175;-68
2021/08/19 04:19:49;;;;;;;8.40;5.70;;;;;;;14.68;100.00;100165.91;5053686;28;20183;-67
2021/08/19 04:22:14;;;;;;;8.47;5.77;;;;;;;14.72;100.00;100164.69;5053669;28;20211;-66
2021/08/19 04:24:40;;;;;;;9.80;5.47;;;;;;;14.78;99.21;100166.88;5053369;28;20205;-66
2021/08/19 04:27:05;;;;;;;8.47;4.60;;;;;;;14.78;98.35;100172.25;5053891;28;20187;-67
2021/08/19 04:29:33;;;;;;;11.37;5.00;;;;;;;14.70;99.66;100175.56;5054134;28;20505;-66
2021/08/19 04:31:59;;;;;;;8.37;5.33;;;;;;;14.58;100.00;100171.16;5053492;28;20202;-66
2021/08/19 04:34:25;;;;;;;9.43;5.37;;;;;;;14.53;100.00;100168.00;5052571;28;20250;-66
2021/08/19 04:36:50;;;;;;;8.70;6.30;;;;;;;14.23;100.00;100181.13;5052457;28;20175;-67
2021/08/19 04:39:15;;;;;;;10.30;6.53;;;;;;;14.05;100.00;100184.25;5053431;28;20253;-66
2021/08/19 04:41:42;;;;;;;11.97;6.60;;;;;;;13.85;100.00;100189.47;5053766;28;20180;-67
2021/08/19 04:44:07;;;;;;;8.90;7.50;;;;;;;13.71;100.00;100190.50;5053456;28;20191;-66
2021/08/19 04:46:32;;;;;;;8.37;6.80;;;;;;;13.56;100.00;100180.94;5052578;28;20237;-67
2021/08/19 04:48:59;;;;;;;6.93;6.23;;;;;;;13.42;100.00;100222.19;5053863;28;20206;-67
2021/08/19 04:51:24;;;;;;;12.07;6.63;;;;;;;13.31;100.00;100192.63;5054448;28;20182;-67
2021/08/19 04:53:50;;;;;;;9.87;7.30;;;;;;;13.24;100.00;100189.56;5052507;28;20668;-68
2021/08/19 04:56:15;;;;;;;8.03;5.93;;;;;;;13.25;100.00;100198.44;5055086;28;20179;-68
2021/08/19 04:58:41;;;;;;;10.60;7.13;;;;;;;13.22;100.00;100190.63;5055880;28;20172;-68
2021/08/19 05:01:06;;;;;;;9.17;6.60;;;;;;;13.20;100.00;100201.47;5054634;28;20172;-68
2021/08/19 05:03:31;;;;;;;8.27;6.63;;;;;;;13.20;100.00;100204.16;5054320;28;20730;-68
2021/08/19 05:05:56;;;;;;;8.80;7.17;;;;;;;13.19;100.00;100205.13;5052830;28;20199;-68
2021/08/19 05:08:22;;;;;;;12.53;6.70;;;;;;;13.17;100.00;100204.38;5054266;28;20199;-68
2021/08/19 05:10:47;;;;;;;9.73;6.00;;;;;;;13.17;100.00;100188.31;5053859;28;20215;-68
2021/08/19 05:13:13;;;;;;;9.33;5.27;;;;;;;13.10;100.00;100192.38;5053634;28;20179;-68
2021/08/19 05:15:38;;;;;;;7.57;5.00;;;;;;;13.03;100.00;100204.50;5053427;28;20257;-68
2021/08/19 05:18:03;;;;;;;5.70;4.53;;;;;;;13.08;100.00;100203.22;5053181;28;20183;-68
2021/08/19 05:20:29;;;;;;;6.00;4.00;;;;;;;13.02;100.00;100214.38;5052455;28;20226;-68
2021/08/19 05:22:54;;;;;;;5.77;4.83;;;;;;;13.09;100.00;100217.47;5061677;28;20221;-68
2021/08/19 05:25:19;;;;;;;6.30;4.77;;;;;;;13.12;100.00;100219.91;5053319;28;20195;-69
2021/08/19 05:27:45;;;;;;;8.63;5.20;;;;;;;13.10;100.00;100233.41;5054153;28;20179;-69
2021/08/19 05:30:10;;;;;;;6.53;5.20;;;;;;;13.09;100.00;100220.13;5053438;28;20548;-69
2021/08/19 05:32:35;;;;;;;7.07;5.80;;;;;;;13.16;100.00;100226.75;5051984;28;20171;-69
2021/08/19 05:35:03;;;;;;;9.30;5.87;;;;;;;13.19;100.00;100223.88;5051618;28;20687;-68
2021/08/19 05:37:28;;;;;;;8.60;6.47;;;;;;;13.22;100.00;100223.66;5052726;28;20543;-69
2021/08/19 05:39:53;;;;;;;10.73;5.93;;;;;;;13.24;100.00;100223.53;5051514;28;20171;-69
2021/08/19 05:42:19;;;;;;;8.80;6.67;;;;;;;13.15;100.00;100230.41;5051338;28;20222;-68
2021/08/19 05:44:44;;;;;;;9.23;5.90;;;;;;;13.27;100.00;100224.16;5052272;28;20563;-69
2021/08/19 05:47:09;;;;;;;8.50;6.40;;;;;;;13.26;100.00;100226.97;5052866;28;20184;-69
2021/08/19 05:49:40;;;;;;;9.53;5.73;;;;;;;13.31;100.00;100233.69;5051224;28;20179;-69
2021/08/19 05:52:05;;;;;;;6.50;5.77;;;;;;;13.26;100.00;100233.16;5037925;28;20159;-69
2021/08/19 05:54:31;;;;;;;6.03;5.33;;;;;;;13.22;100.00;100236.19;5056609;28;20505;-70
2021/08/19 05:56:56;;;;;;;5.97;4.70;;;;;;;13.25;100.00;100226.09;5056432;28;20671;-68
2021/08/19 05:59:21;;;;;;;9.00;5.17;;;;;;;13.35;100.00;100232.50;5056385;28;20176;-68
2021/08/19 06:01:46;;;;;;;7.07;4.57;;;;;;;13.39;100.00;100235.81;5056410;28;20172;-69
2021/08/19 06:04:12;;;;;;;6.67;4.70;;;;;;;13.37;100.00;100245.78;5054875;28;20245;-68
2021/08/19 06:06:37;;;;;;;9.13;4.87;;;;;;;13.43;100.00;100229.25;5056679;28;20180;-68
2021/08/19 06:09:02;;;;;;;6.87;4.73;;;;;;;13.50;100.00;100229.66;5057183;28;20190;-68
2021/08/19 06:11:28;;;;;;;5.17;3.93;;;;;;;13.61;100.00;100230.56;5056593;28;20552;-68
2021/08/19 06:13:53;;;;;;;4.20;3.77;;;;;;;13.69;100.00;100241.56;5056497;28;20200;-68
2021/08/19 06:16:18;;;;;;;7.93;4.63;;;;;;;13.70;100.00;100239.72;5056873;28;20171;-68
2021/08/19 06:18:44;;;;;;;5.77;3.83;;;;;;;13.86;100.00;100245.66;5056797;28;20168;-68
2021/08/19 06:21:09;;;;;;;6.27;4.13;;;;;;;13.99;100.00;100233.03;5056142;28;20175;-68
2021/08/19 06:23:34;;;;;;;4.93;3.80;;;;;;;14.17;100.00;100235.28;5054857;28;20175;-68
2021/08/19 06:25:59;;;;;;;4.80;3.50;;;;;;;14.27;100.00;100242.50;5056067;28;20194;-68
2021/08/19 06:28:25;;;;;;;4.20;3.47;;;;;;;14.41;100.00;100246.78;5056097;28;20206;-68
2021/08/19 06:30:52;;;;;;;3.90;3.23;;;;;;;14.47;100.00;100251.69;5056756;28;20179;-68
2021/08/19 06:33:17;;;;;;;3.67;3.17;;;;;;;14.55;100.00;100246.59;5055513;28;20202;-68
2021/08/19 06:35:42;;;;;;;3.87;3.27;;;;;;;14.68;100.00;100266.13;5055993;28;20262;-67
2021/08/19 06:38:07;;;;;;;7.07;3.37;;;;;;;14.80;100.00;100247.34;5056321;28;20179;-68
2021/08/19 06:40:33;;;;;;;5.13;3.47;;;;;;;14.84;100.00;100243.41;5055980;28;20631;-67
2021/08/19 06:42:58;;;;;;;3.63;3.17;;;;;;;14.92;100.00;100224.88;5056584;28;20176;-68
2021/08/19 06:45:23;;;;;;;6.27;3.37;;;;;;;15.04;99.66;100233.78;5058220;28;20199;-68
2021/08/19 06:47:49;;;;;;;4.30;3.30;;;;;;;15.12;98.51;100242.91;5057186;28;20176;-68
2021/08/19 06:50:14;;;;;;;6.20;2.83;;;;;;;15.18;97.67;100237.03;5055903;28;20176;-68
2021/08/19 06:52:40;;;;;;;5.30;2.80;;;;;;;15.19;98.53;100235.22;5055995;28;20223;-68
2021/08/19 06:55:07;;;;;;;6.47;3.23;;;;;;;15.29;96.84;100241.56;5055588;28;20337;-68
2021/08/19 06:57:32;;;;;;;4.10;2.70;;;;;;;15.35;96.75;100235.69;5054447;28;20179;-67
2021/08/19 06:59:57;;;;;;;6.37;3.43;;;;;;;15.33;95.59;100243.88;5055323;28;20186;-68
2021/08/19 07:02:23;;;;;;;6.43;3.70;;;;;;;15.31;96.56;100250.34;5054815;28;20242;-69
2021/08/19 07:04:48;;;;;;;6.93;4.10;;;;;;;15.30;95.39;100257.56;5054930;28;20203;-68
2021/08/19 07:07:13;;;;;;;5.47;3.97;;;;;;;15.40;95.57;100246.06;5056480;28;20180;-68
2021/08/19 07:09:38;;;;;;;7.33;4.47;;;;;;;15.39;94.61;100252.41;5055680;28;20191;-69
2021/08/19 07:12:04;;;;;;;4.63;3.30;;;;;;;15.43;95.29;100248.50;5055987;28;20175;-67
2021/08/19 07:14:29;;;;;;;4.87;3.47;;;;;;;15.36;94.61;100260.72;5055594;28;20204;-68
2021/08/19 07:16:54;;;;;;;5.57;3.70;;;;;;;15.39;94.93;100249.72;5037434;28;20608;-67
2021/08/19 07:19:20;;;;;;;6.57;3.47;;;;;;;15.56;93.65;100270.69;5054002;28;20282;-67
2021/08/19 07:21:46;;;;;;;7.57;3.80;;;;;;;15.58;93.54;100250.78;5055113;28;20635;-68
2021/08/19 07:24:12;;;;;;;5.07;3.47;;;;;;;15.67;93.44;100259.94;5053459;28;20195;-67
2021/08/19 07:26:37;;;;;;;4.87;3.87;;;;;;;15.85;92.27;100265.63;5054912;28;20587;-68
2021/08/19 07:29:03;;;;;;;4.00;3.27;;;;;;;15.88;92.42;100268.06;5055059;28;20163;-66
2021/08/19 07:31:28;;;;;;;6.70;3.90;;;;;;;15.77;92.37;100277.03;5053960;28;20564;-68
2021/08/19 07:33:53;;;;;;;5.83;3.80;;;;;;;15.64;92.66;100295.19;5055146;28;20625;-67
2021/08/19 07:36:20;;;;;;;6.07;4.33;;;;;;;15.49;92.91;100291.00;5054889;28;20194;-67
2021/08/19 07:38:46;;;;;;;5.63;4.00;;;;;;;15.46;93.69;100281.34;5054927;28;20180;-69
2021/08/19 07:41:11;;;;;;;5.93;4.00;;;;;;;15.56;93.03;100286.81;5055079;28;20175;-68
2021/08/19 07:43:36;;;;;;;4.90;4.00;;;;;;;15.71;92.99;100300.91;5057572;28;20175;-69
2021/08/19 07:46:02;;;;;;;7.33;4.10;;;;;;;15.73;92.51;100283.66;5053360;28;20192;-69
2021/08/19 07:48:28;;;;;;;6.77;3.80;;;;;;;15.75;92.41;100287.06;5054592;28;20179;-69
2021/08/19 07:50:53;;;;;;;6.77;4.60;;;;;;;15.91;91.97;100289.31;5054608;28;20188;-70
2021/08/19 07:53:18;;;;;;;8.77;4.10;;;;;;;16.15;90.77;100302.56;5054898;28;20705;-71
2021/08/19 07:55:44;;;;;;;6.90;3.90;;;;;;;16.17;88.44;100279.06;5053257;28;20250;-69
2021/08/19 07:58:09;;;;;;;10.63;5.03;;;;;;;16.21;87.43;100305.59;5054671;28;20176;-69
2021/08/19 08:00:35;;;;;;;6.47;4.10;;;;;;;16.29;87.46;100312.16;5053038;28;20215;-70
2021/08/19 08:03:01;;;;;;;5.93;3.90;;;;;;;16.42;87.40;100302.06;5053430;28;20176;-69
2021/08/19 08:05:29;;;;;;;6.33;3.70;;;;;;;16.45;87.01;100299.97;5036016;28;20211;-69
2021/08/19 08:08:01;;;;;;;6.03;4.43;;;;;;;16.55;87.44;100298.19;5054415;28;20179;-69
2021/08/19 08:10:27;;;;;;;13.37;4.70;;;;;;;16.46;87.48;100296.28;5054201;28;20225;-70
2021/08/19 08:12:52;;;;;;;7.07;4.57;;;;;;;16.47;85.50;100294.44;5053894;28;20172;-69
2021/08/19 08:15:17;;;;;;;5.80;4.50;;;;;;;16.49;87.14;100303.25;5053880;28;20249;-69
2021/08/19 08:17:43;;;;;;;11.23;4.80;;;;;;;16.57;86.32;100306.97;5053899;28;20179;-69
2021/08/19 08:20:11;;;;;;;7.80;4.50;;;;;;;16.53;86.24;100310.94;5053789;28;20171;-70
2021/08/19 08:22:37;;;;;;;7.53;4.47;;;;;;;16.67;85.98;100311.59;5052670;28;20172;-70
2021/08/19 08:25:03;;;;;;;6.80;4.07;;;;;;;16.84;84.77;100313.72;5054377;28;20234;-69
2021/08/19 08:27:29;;;;;;;7.57;4.83;;;;;;;16.99;84.78;100311.50;5054218;28;20192;-70
2021/08/19 08:29:54;;;;;;;10.97;4.87;;;;;;;17.09;84.01;100324.03;5053576;28;20304;-70
2021/08/19 08:32:20;;;;;;;7.03;4.43;;;;;;;16.83;83.88;100314.69;5053855;28;20195;-69
2021/08/19 08:34:45;;;;;;;8.07;4.83;;;;;;;16.90;84.57;100329.34;5053309;28;20187;-69
2021/08/19 08:37:12;;;;;;;8.17;4.10;;;;;;;16.84;83.17;100324.50;5053171;28;20176;-69
2021/08/19 08:39:38;;;;;;;7.57;4.23;;;;;;;16.87;83.16;100318.81;5053714;28;20190;-69
2021/08/19 08:42:06;;;;;;;6.87;4.03;;;;;;;16.85;82.66;100324.34;5053290;28;20176;-69
2021/08/19 08:44:32;;;;;;;7.33;4.70;;;;;;;16.85;83.85;100327.03;5053527;28;20211;-68
2021/08/19 08:46:58;;;;;;;10.57;4.70;;;;;;;16.84;84.61;100333.44;5052137;28;20639;-69
2021/08/19 08:49:24;;;;;;;7.20;4.10;;;;;;;17.04;84.28;100331.66;5052347;28;20659;-68
2021/08/19 08:51:54;;;;;;;8.13;5.33;;;;;;;17.16;83.87;100336.00;5052016;28;20175;-69
2021/08/19 08:54:20;;;;;;;5.87;3.53;;;;;;;17.33;83.13;100347.13;5053247;28;20191;-70
2021/08/19 08:56:45;;;;;;;5.30;3.33;;;;;;;17.15;84.29;100338.84;5053278;28;20233;-70
2021/08/19 08:59:10;;;;;;;5.47;3.20;;;;;;;17.00;84.27;100345.56;5053393;28;20648;-69
2021/08/19 09:01:36;;;;;;;4.20;3.20;;;;;;;17.10;84.09;100355.44;5054118;28;20639;-69
2021/08/19 09:04:03;;;;;;;5.33;3.10;;;;;;;16.97;85.34;100351.22;5052852;28;20572;-69
2021/08/19 09:06:35;;;;;;;4.57;3.00;;;;;;;17.01;86.14;100358.03;5053090;28;20196;-69
2021/08/19 09:09:19;;;;;;;4.87;3.47;;;;;;;17.12;84.82;100360.69;5053393;28;20624;-68
2021/08/19 09:11:52;;;;;;;7.37;4.10;;;;;;;17.24;83.99;100348.81;5052167;28;20164;-68
2021/08/19 09:14:25;;;;;;;7.13;3.70;;;;;;;17.42;83.45;100357.09;5052116;28;20274;-69
2021/08/19 09:16:51;;;;;;;4.53;2.97;;;;;;;17.46;82.60;100363.91;5053238;28;20548;-69
2021/08/19 09:19:18;;;;;;;6.33;3.60;;;;;;;17.40;82.49;100361.78;5035066;28;20179;-68
2021/08/19 09:21:55;;;;;;;6.27;3.37;;;;;;;17.55;82.40;100354.19;5052686;28;20692;-69
2021/08/19 09:24:28;;;;;;;4.60;3.20;;;;;;;17.53;81.58;100359.72;5052667;28;20301;-69
2021/08/19 09:26:54;;;;;;;5.77;3.50;;;;;;;17.62;81.92;100361.59;5055828;28;20685;-69
2021/08/19 09:29:30;;;;;;;3.67;2.93;;;;;;;17.64;80.62;100351.50;5057122;28;20761;-69
2021/08/19 09:32:08;;;;;;;4.67;2.77;;;;;;;17.55;81.67;100373.91;5057530;28;20163;-68
2021/08/19 09:34:34;;;;;;;5.87;3.27;;;;;;;17.42;82.00;100362.50;5057498;28;20195;-69
2021/08/19 09:37:01;;;;;;;6.37;2.80;;;;;;;17.57;82.10;100371.94;5056841;28;20233;-69
2021/08/19 09:39:56;;;;;;;4.47;2.80;;;;;;;17.37;81.42;100380.94;5038851;28;20696;-69
2021/08/19 09:42:35;;;;;;;5.43;2.50;;;;;;;17.41;81.62;100376.97;5055804;28;20180;-68
2021/08/19 09:45:16;;;;;;;3.63;2.83;;;;;;;17.58;79.30;100383.59;5055702;28;20211;-70
2021/08/19 09:47:41;;;;;;;5.10;2.80;;;;;;;17.61;79.05;100364.41;5056945;28;20625;-68
2021/08/19 09:50:16;;;;;;;5.60;2.80;;;;;;;17.68;79.31;100368.31;5056602;28;20175;-69
2021/08/19 09:52:42;;;;;;;4.10;2.40;;;;;;;17.46;78.17;100380.09;5055246;28;20172;-68
2021/08/19 09:55:31;;;;;;;4.33;2.90;;;;;;;17.52;78.19;100394.94;5056593;28;20220;-69
2021/08/19 09:57:58;;;;;;;5.40;2.80;;;;;;;17.47;77.59;100371.06;5056706;28;20176;-69
2021/08/19 10:00:27;;;;;;;6.40;2.50;;;;;;;17.86;76.85;100371.19;5055129;28;20659;-68
2021/08/19 10:02:53;;;;;;;6.20;3.17;;;;;;;18.10;73.59;100386.00;5056366;28;20207;-69
2021/08/19 10:05:18;;;;;;;3.50;3.00;;;;;;;18.05;75.54;100360.41;5077488;22;20592;-76
2021/08/19 10:07:44;;;;;;;6.43;2.90;;;;;;;18.14;74.21;100370.38;5056619;28;20237;-77
2021/08/19 10:10:09;;;;;;;5.03;2.90;;;;;;;17.89;73.33;100371.78;5056942;28;20175;-76
2021/08/19 10:12:41;;;;;;;5.87;2.80;;;;;;;17.80;74.87;100368.03;5058338;28;20185;-77
2021/08/19 10:15:07;;;;;;;6.57;3.20;;;;;;;17.65;76.13;100382.88;5056744;28;20251;-77
2021/08/19 10:17:34;;;;;;;5.53;2.80;;;;;;;17.09;76.69;100371.69;5059950;28;20607;-77
2021/08/19 10:20:00;;;;;;;5.37;3.00;;;;;;;16.12;84.33;100397.06;5058102;28;20597;-76
2021/08/19 10:22:26;;;;;;;5.23;3.13;;;;;;;15.36;95.78;100385.28;5056412;28;20175;-75
2021/08/19 10:24:53;;;;;;;5.23;3.40;;;;;;;14.79;100.00;100388.84;5038867;28;20734;-76
2021/08/19 10:27:21;;;;;;;5.77;3.63;;;;;;;14.73;100.00;100394.72;5038560;28;20321;-76
2021/08/19 10:29:50;;;;;;;4.43;3.70;;;;;;;14.88;100.00;100379.25;5038662;28;20180;-75
2021/08/19 10:32:38;;;;;;;9.47;3.80;;;;;;;15.05;95.73;100389.53;5056621;28;20183;-75
2021/08/19 10:35:12;;;;;;;6.10;3.83;;;;;;;14.92;98.70;100367.28;5055625;28;20190;-77
2021/08/19 10:37:49;;;;;;;5.00;3.23;;;;;;;14.80;98.97;100390.56;5055852;28;20206;-78
2021/08/19 10:40:24;;;;;;;5.30;3.20;;;;;;;14.60;99.11;100386.75;5057784;28;20172;-76
2021/08/19 10:42:52;;;;;;;4.60;3.37;;;;;;;14.47;100.00;100394.00;5055488;28;20175;-76
2021/08/19 10:45:26;;;;;;;5.20;3.30;;;;;;;14.38;100.00;100394.69;5054822;28;20203;-77
2021/08/19 10:47:53;;;;;;;5.67;3.80;;;;;;;14.22;100.00;100392.31;5054799;28;20193;-76
2021/08/19 10:50:26;;;;;;;10.20;4.53;;;;;;;14.26;100.00;100385.72;5055290;28;20177;-75
2021/08/19 10:52:51;;;;;;;6.73;3.80;;;;;;;14.37;100.00;100392.97;5054665;28;20167;-74
2021/08/19 10:55:19;;;;;;;10.97;4.93;;;;;;;14.65;100.00;100392.63;5054609;28;20222;-76
2021/08/19 10:57:52;;;;;;;11.80;4.73;;;;;;;14.86;100.00;100402.66;5040009;28;20271;-75
2021/08/19 11:00:36;;;;;;;7.60;4.63;;;;;;;14.98;100.00;100399.91;5038188;28;20164;-75
2021/08/19 11:03:02;;;;;;;7.53;4.40;;;;;;;15.21;100.00;100397.22;5037795;28;20172;-75
2021/08/19 11:05:27;;;;;;;7.83;4.37;;;;;;;15.41;100.00;100404.59;5055822;28;20272;-75
2021/08/19 11:07:53;;;;;;;7.60;4.13;;;;;;;16.06;95.28;100402.94;5055844;28;20217;-75
2021/08/19 11:10:38;;;;;;;22.33;12.07;;;;;;;18.41;80.26;100391.28;5055692;28;20171;-77
2021/08/19 11:13:05;;;;;;;6.23;3.33;;;;;;;19.40;74.16;100408.97;5055109;28;20156;-77
2021/08/19 11:15:31;;;;;;;5.90;3.60;;;;;;;18.94;74.46;100404.38;5038102;28;20195;-75
2021/08/19 11:17:58;;;;;;;6.33;4.07;;;;;;;18.32;75.53;100401.09;5056248;28;20187;-76